Time;durP1;ratioP1;P1;durP2;ratioP2;P2;SDS_P1;SDS_P2;PMS_P1;PMS_P2;Temp;Humidity;BMP_temperature;BMP_pressure;BME280_temperature;BME280_humidity;BME280_pressure;Samples;Min_cycle;Max_cycle;Signal;HPM_P1;HPM_P2
2023/02/11 00:01:11;;;;;;;110.68;68.90;;;;;;;-4.13;95.96;97642.75;5058128;28;20071;-70
2023/02/11 00:03:37;;;;;;;110.20;68.13;;;;;;;-4.12;96.02;97629.03;5058763;28;20037;-71
2023/02/11 00:06:07;;;;;;;108.50;70.43;;;;;;;-4.12;95.42;97631.59;5059087;28;20044;-70
2023/02/11 00:08:33;;;;;;;114.95;70.93;;;;;;;-4.12;95.52;97633.34;5062540;28;20060;-70
2023/02/11 00:10:59;;;;;;;137.23;80.53;;;;;;;-4.19;96.02;97635.06;5063529;28;20765;-64
2023/02/11 00:13:25;;;;;;;144.25;84.07;;;;;;;-4.25;96.09;97638.50;5062654;28;20036;-63
2023/02/11 00:15:50;;;;;;;155.32;89.70;;;;;;;-4.28;96.13;97638.50;5062400;28;20039;-70
2023/02/11 00:18:16;;;;;;;148.38;90.35;;;;;;;-4.28;96.87;97643.66;5049444;28;20178;-70
2023/02/11 00:20:42;;;;;;;138.32;82.45;;;;;;;-4.30;96.83;97647.09;5053453;28;20044;-70
2023/02/11 00:23:08;;;;;;;136.57;80.50;;;;;;;-4.34;97.14;97648.81;5060517;28;20036;-69
2023/02/11 00:25:37;;;;;;;122.35;73.85;;;;;;;-4.36;96.82;97648.81;5065916;28;20049;-70
2023/02/11 00:28:02;;;;;;;122.85;76.28;;;;;;;-4.36;97.24;97640.25;5059912;28;20041;-70
2023/02/11 00:30:28;;;;;;;112.60;69.60;;;;;;;-4.35;96.35;97654.81;5049308;28;20021;-76
2023/02/11 00:32:53;;;;;;;108.88;65.03;;;;;;;-4.36;96.35;97646.22;5061371;28;20045;-64
2023/02/11 00:35:18;;;;;;;110.97;68.28;;;;;;;-4.36;97.15;97635.94;5058219;28;20049;-62
2023/02/11 00:37:44;;;;;;;108.05;67.22;;;;;;;-4.36;96.67;97635.09;5060846;28;20044;-63
2023/02/11 00:40:10;;;;;;;98.00;65.40;;;;;;;-4.37;96.21;97635.97;5056232;28;20021;-63
2023/02/11 00:42:36;;;;;;;96.65;60.90;;;;;;;-4.37;96.05;97629.09;5062609;28;20407;-63
2023/02/11 00:45:01;;;;;;;84.75;55.83;;;;;;;-4.35;95.64;97631.66;5059490;28;20539;-63
2023/02/11 00:47:27;;;;;;;72.22;51.90;;;;;;;-4.35;96.63;97631.66;5054673;28;20507;-63
2023/02/11 00:49:52;;;;;;;66.88;47.35;;;;;;;-4.40;96.17;97618.81;5059986;28;20036;-63
2023/02/11 00:52:17;;;;;;;69.45;51.13;;;;;;;-4.44;96.83;97622.25;5058795;28;20041;-63
2023/02/11 00:54:43;;;;;;;68.22;48.22;;;;;;;-4.43;97.24;97620.53;5051647;28;20036;-69
2023/02/11 00:57:08;;;;;;;69.25;48.22;;;;;;;-4.51;97.50;97616.25;5055543;28;20029;-69
2023/02/11 00:59:33;;;;;;;64.28;45.97;;;;;;;-4.50;98.72;97617.13;5047688;28;20036;-69
2023/02/11 01:01:59;;;;;;;67.43;46.25;;;;;;;-4.53;97.78;97607.69;5062233;28;20087;-69
2023/02/11 01:04:24;;;;;;;64.53;46.08;;;;;;;-4.54;97.95;97620.53;5035024;28;20036;-69
2023/02/11 01:06:49;;;;;;;58.13;42.08;;;;;;;-4.63;98.00;97611.97;5058433;28;20029;-69
2023/02/11 01:09:15;;;;;;;57.15;41.60;;;;;;;-4.66;98.00;97612.00;5056148;28;20132;-65
2023/02/11 01:11:40;;;;;;;63.88;46.67;;;;;;;-4.63;97.96;97609.41;5058882;28;20140;-65
2023/02/11 01:14:06;;;;;;;69.93;46.45;;;;;;;-4.60;97.84;97611.97;5062181;28;20032;-65
2023/02/11 01:16:31;;;;;;;59.95;44.45;;;;;;;-4.62;96.96;97613.69;5047798;28;20467;-65
2023/02/11 01:18:57;;;;;;;56.05;44.83;;;;;;;-4.60;97.24;97622.25;5041296;28;20036;-65
2023/02/11 01:21:23;;;;;;;52.15;40.15;;;;;;;-4.58;97.31;97613.69;5064672;28;20056;-64
2023/02/11 01:23:48;;;;;;;52.80;40.45;;;;;;;-4.62;98.30;97618.00;5067494;28;20406;-65
2023/02/11 01:26:14;;;;;;;55.28;41.75;;;;;;;-4.64;97.66;97614.56;5065133;28;20033;-65
2023/02/11 01:28:39;;;;;;;53.20;40.95;;;;;;;-4.64;97.47;97610.28;5059985;28;20550;-69
2023/02/11 01:31:04;;;;;;;51.35;40.47;;;;;;;-4.65;98.21;97612.81;5063636;28;20398;-63
2023/02/11 01:33:30;;;;;;;50.55;40.05;;;;;;;-4.64;97.12;97610.28;5061603;28;20033;-63
2023/02/11 01:35:59;;;;;;;47.67;39.22;;;;;;;-4.66;97.31;97609.41;5062216;28;20032;-63
2023/02/11 01:38:25;;;;;;;49.40;39.30;;;;;;;-4.65;97.08;97600.84;5068244;28;20498;-63
2023/02/11 01:40:59;;;;;;;45.45;37.83;;;;;;;-4.66;97.60;97600.84;5066808;28;20025;-64
2023/02/11 01:43:27;;;;;;;43.80;35.38;;;;;;;-4.69;96.52;97599.16;5068425;28;20063;-64
2023/02/11 01:45:57;;;;;;;47.55;34.92;;;;;;;-4.72;97.44;97594.00;5063041;28;20036;-63
2023/02/11 01:48:33;;;;;;;43.58;32.63;;;;;;;-4.76;97.52;97588.00;5058221;28;20120;-69
2023/02/11 01:51:07;;;;;;;43.15;32.95;;;;;;;-4.76;97.92;97589.72;5061855;28;20494;-65
2023/02/11 01:59:17;;;;;;;42.75;32.67;;;;;;;-4.81;98.04;97582.03;5062362;28;20094;-65
2023/02/11 02:01:47;;;;;;;41.65;32.20;;;;;;;-4.81;98.46;97576.00;5063719;28;20047;-65
2023/02/11 02:04:17;;;;;;;44.10;32.55;;;;;;;-4.87;97.43;97582.00;5059072;28;20198;-65
2023/02/11 02:06:50;;;;;;;36.95;29.42;;;;;;;-4.86;98.02;97564.88;5065064;28;20036;-64
2023/02/11 02:09:24;;;;;;;42.85;35.13;;;;;;;-4.84;98.31;97563.16;5052098;28;20028;-70
2023/02/11 02:11:50;;;;;;;45.92;35.20;;;;;;;-4.81;98.13;97566.59;5067200;28;20039;-63
2023/02/11 02:14:16;;;;;;;58.65;41.03;;;;;;;-4.85;97.95;97569.16;5067323;28;20498;-63
2023/02/11 02:16:41;;;;;;;49.47;38.13;;;;;;;-4.86;98.58;97570.91;5066570;28;20107;-62
2023/02/11 02:19:46;;;;;;;39.65;32.78;;;;;;;-4.89;98.08;97556.31;5065978;28;20056;-62
2023/02/11 02:22:49;;;;;;;36.47;30.70;;;;;;;-4.86;98.24;97562.31;5057951;28;20047;-62
2023/02/11 02:26:05;;;;;;;39.53;31.48;;;;;;;-4.90;98.73;97564.03;5063789;28;20112;-62
2023/02/11 02:28:46;;;;;;;40.60;31.70;;;;;;;-4.93;99.17;97558.88;5062299;28;20115;-63
2023/02/11 02:31:49;;;;;;;40.53;33.28;;;;;;;-4.92;98.47;97563.16;5068407;28;20047;-69
2023/02/11 02:34:19;;;;;;;44.50;35.33;;;;;;;-4.96;97.99;97552.06;5044796;28;20044;-69
2023/02/11 02:37:03;;;;;;;40.25;33.42;;;;;;;-4.97;98.09;97550.34;5057795;28;20053;-69
2023/02/11 02:39:33;;;;;;;44.22;33.38;;;;;;;-4.98;98.47;97555.47;5065541;28;20094;-70
2023/02/11 02:41:58;;;;;;;44.38;36.42;;;;;;;-5.02;98.50;97552.03;5066566;28;20032;-69
2023/02/11 02:44:24;;;;;;;81.20;56.15;;;;;;;-4.96;98.91;97557.19;5067995;28;20032;-70
2023/02/11 02:46:50;;;;;;;64.75;46.47;;;;;;;-4.96;98.60;97549.50;5064142;28;20029;-70
2023/02/11 02:49:16;;;;;;;64.70;44.15;;;;;;;-5.01;98.68;97555.47;5057990;28;20033;-69
2023/02/11 02:52:02;;;;;;;56.08;40.08;;;;;;;-5.01;99.46;97551.19;5056548;28;20522;-70
2023/02/11 02:54:30;;;;;;;53.42;41.40;;;;;;;-5.02;98.56;97544.34;5067697;28;20033;-70
2023/02/11 02:57:16;;;;;;;68.75;45.75;;;;;;;-5.06;99.16;97542.63;5059272;28;20028;-70
2023/02/11 02:59:58;;;;;;;67.18;47.33;;;;;;;-5.07;99.26;97538.34;5065708;28;20501;-70
2023/02/11 03:02:33;;;;;;;58.35;42.05;;;;;;;-5.10;99.86;97535.78;5057756;28;20025;-72
2023/02/11 03:05:14;;;;;;;68.72;46.10;;;;;;;-5.10;99.26;97535.78;5057983;28;20410;-62
2023/02/11 03:08:00;;;;;;;71.57;47.95;;;;;;;-5.10;100.00;97528.91;5059243;28;20499;-75
2023/02/11 03:10:32;;;;;;;59.55;43.80;;;;;;;-5.08;98.79;97531.50;5067183;28;20036;-70
2023/02/11 03:12:58;;;;;;;58.55;43.13;;;;;;;-5.05;98.85;97531.50;5060220;28;20091;-69
2023/02/11 03:15:27;;;;;;;63.50;44.28;;;;;;;-5.08;99.22;97536.63;5064338;28;20096;-69
2023/02/11 03:17:57;;;;;;;73.93;47.80;;;;;;;-5.10;99.12;97530.66;5065601;28;20086;-70
2023/02/11 03:20:23;;;;;;;58.17;39.75;;;;;;;-5.11;98.93;97536.66;5070261;28;20494;-69
2023/02/11 03:22:54;;;;;;;53.63;37.97;;;;;;;-5.16;99.82;97533.22;5057320;28;20041;-70
2023/02/11 03:25:25;;;;;;;45.38;36.05;;;;;;;-5.18;99.50;97530.66;5066083;28;20402;-65
2023/02/11 03:27:52;;;;;;;44.08;34.85;;;;;;;-5.21;99.98;97535.78;5061912;28;20039;-65
2023/02/11 03:30:28;;;;;;;40.50;32.42;;;;;;;-5.20;99.25;97535.78;5065212;28;20473;-65
2023/02/11 03:33:07;;;;;;;49.17;35.35;;;;;;;-5.21;99.62;97538.34;5057119;28;20053;-65
2023/02/11 03:35:53;;;;;;;56.08;39.67;;;;;;;-5.21;98.66;97536.63;5056816;28;20059;-65
2023/02/11 03:38:28;;;;;;;65.32;42.70;;;;;;;-5.21;98.82;97540.94;5053753;28;20029;-65
2023/02/11 03:40:55;;;;;;;64.30;42.75;;;;;;;-5.22;99.28;97537.47;5055832;28;20035;-65
2023/02/11 03:43:47;;;;;;;61.70;41.97;;;;;;;-5.25;98.64;97532.34;5053172;28;20451;-69
2023/02/11 03:46:17;;;;;;;47.25;36.90;;;;;;;-5.28;98.94;97534.94;5054288;28;20036;-69
2023/02/11 03:48:48;;;;;;;49.58;36.80;;;;;;;-5.31;99.54;97529.78;5062088;28;20517;-69
2023/02/11 03:51:14;;;;;;;48.25;35.97;;;;;;;-5.31;99.14;97529.78;5055860;28;20111;-68
2023/02/11 03:53:43;;;;;;;45.33;36.28;;;;;;;-5.32;99.23;97528.09;5057726;28;20099;-69
2023/02/11 03:56:13;;;;;;;44.28;34.10;;;;;;;-5.35;98.99;97523.78;5064059;28;20068;-69
2023/02/11 03:58:38;;;;;;;57.78;41.65;;;;;;;-5.35;100.00;97512.69;5066139;28;20036;-69
2023/02/11 04:01:07;;;;;;;53.63;36.47;;;;;;;-5.31;100.00;97522.09;5065895;28;20486;-69
2023/02/11 04:03:33;;;;;;;61.13;44.42;;;;;;;-5.37;100.00;97514.41;5061820;28;20039;-69
2023/02/11 04:05:58;;;;;;;56.40;41.85;;;;;;;-5.41;100.00;97507.56;5063324;28;20406;-64
2023/02/11 04:08:23;;;;;;;55.13;38.55;;;;;;;-5.41;100.00;97512.69;5060740;28;20059;-63
2023/02/11 04:10:49;;;;;;;51.15;37.30;;;;;;;-5.42;100.00;97506.69;5061229;28;20656;-63
2023/02/11 04:13:14;;;;;;;43.72;34.20;;;;;;;-5.42;100.00;97505.81;5059641;28;20051;-63
2023/02/11 04:15:39;;;;;;;42.33;32.55;;;;;;;-5.43;100.00;97509.22;5059119;28;20499;-63
2023/02/11 04:18:05;;;;;;;43.15;32.92;;;;;;;-5.48;100.00;97502.38;5066994;28;20033;-63
2023/02/11 04:20:30;;;;;;;48.17;33.95;;;;;;;-5.48;100.00;97504.13;5064413;28;20024;-63
2023/02/11 04:22:55;;;;;;;49.10;33.03;;;;;;;-5.49;100.00;97500.69;5062263;28;20055;-64
2023/02/11 04:25:21;;;;;;;43.17;31.85;;;;;;;-5.43;100.00;97499.84;5061882;28;20053;-62
2023/02/11 04:27:46;;;;;;;44.72;32.88;;;;;;;-5.41;100.00;97502.41;5064970;28;20388;-69
2023/02/11 04:30:12;;;;;;;45.47;32.92;;;;;;;-5.49;100.00;97502.41;5067210;28;20127;-70
2023/02/11 04:32:37;;;;;;;43.50;30.52;;;;;;;-5.53;100.00;97496.41;5061372;28;20068;-70
2023/02/11 04:35:03;;;;;;;40.97;31.40;;;;;;;-5.51;100.00;97494.69;5056644;28;20068;-70
2023/02/11 04:37:29;;;;;;;43.40;34.05;;;;;;;-5.48;100.00;97487.00;5061336;28;20063;-69
2023/02/11 04:39:54;;;;;;;52.13;39.03;;;;;;;-5.52;100.00;97480.16;5060343;28;20040;-70
2023/02/11 04:42:19;;;;;;;49.28;34.55;;;;;;;-5.52;100.00;97485.28;5058723;28;20037;-64
2023/02/11 04:44:44;;;;;;;38.58;28.50;;;;;;;-5.50;100.00;97493.84;5059456;28;20414;-75
2023/02/11 04:47:12;;;;;;;36.47;28.10;;;;;;;-5.46;99.97;97487.84;5061590;28;20095;-65
2023/02/11 04:49:37;;;;;;;34.95;27.90;;;;;;;-5.42;99.89;97490.41;5053517;28;20459;-65
2023/02/11 04:52:03;;;;;;;34.72;28.08;;;;;;;-5.43;99.28;97493.81;5065209;28;20119;-65
2023/02/11 04:54:28;;;;;;;38.78;28.35;;;;;;;-5.43;99.76;97498.97;5064246;28;20024;-65
2023/02/11 04:56:53;;;;;;;36.40;27.83;;;;;;;-5.47;100.00;97488.69;5059401;28;20052;-65
2023/02/11 04:59:19;;;;;;;34.50;28.20;;;;;;;-5.49;100.00;97490.41;5059788;28;20151;-64
2023/02/11 05:01:44;;;;;;;36.90;28.92;;;;;;;-5.57;100.00;97493.81;5061369;28;20064;-64
2023/02/11 05:04:09;;;;;;;30.73;26.63;;;;;;;-5.55;100.00;97502.38;5056664;28;20040;-69
2023/02/11 05:06:37;;;;;;;32.67;27.83;;;;;;;-5.51;100.00;97497.25;5062486;28;20033;-63
2023/02/11 05:09:02;;;;;;;35.72;26.67;;;;;;;-5.58;99.80;97505.81;5061404;28;20112;-62
2023/02/11 05:11:28;;;;;;;33.15;26.20;;;;;;;-5.63;99.58;97504.97;5067361;28;20152;-62
2023/02/11 05:13:53;;;;;;;32.70;25.75;;;;;;;-5.64;99.79;97508.34;5063739;28;20047;-62
2023/02/11 05:16:19;;;;;;;27.48;24.33;;;;;;;-5.64;100.00;97509.22;5064196;28;20167;-63
2023/02/11 05:18:45;;;;;;;28.33;24.95;;;;;;;-5.57;99.72;97506.66;5059922;28;20409;-63
2023/02/11 05:21:16;;;;;;;31.30;23.63;;;;;;;-5.62;100.00;97498.97;5068816;28;20503;-69
2023/02/11 05:23:42;;;;;;;28.60;23.95;;;;;;;-5.65;100.00;97502.38;5068361;28;20031;-69
2023/02/11 05:26:07;;;;;;;32.88;26.08;;;;;;;-5.62;100.00;97498.97;5060867;28;20033;-70
2023/02/11 05:28:34;;;;;;;29.33;25.13;;;;;;;-5.61;100.00;97510.94;5067323;28;20090;-70
2023/02/11 05:30:59;;;;;;;29.95;23.55;;;;;;;-5.65;100.00;97504.09;5065546;28;20032;-70
2023/02/11 05:33:25;;;;;;;34.90;25.70;;;;;;;-5.67;100.00;97501.53;5069574;28;20021;-69
2023/02/11 05:35:50;;;;;;;27.73;24.52;;;;;;;-5.63;100.00;97505.81;5056489;28;20048;-70
2023/02/11 05:38:16;;;;;;;27.15;23.98;;;;;;;-5.63;100.00;97503.25;5059008;28;20134;-70
2023/02/11 05:40:41;;;;;;;27.35;22.42;;;;;;;-5.66;100.00;97502.38;5068718;28;20044;-75
2023/02/11 05:43:07;;;;;;;32.63;24.98;;;;;;;-5.64;100.00;97498.09;5066438;28;20041;-63
2023/02/11 05:45:33;;;;;;;34.17;29.25;;;;;;;-5.64;100.00;97493.81;5064749;28;20506;-64
2023/02/11 05:47:58;;;;;;;37.53;29.48;;;;;;;-5.68;100.00;97488.69;5063615;28;20040;-63
2023/02/11 05:50:24;;;;;;;30.70;25.38;;;;;;;-5.71;100.00;97483.56;5061642;28;20395;-63
2023/02/11 05:52:49;;;;;;;32.15;27.38;;;;;;;-5.71;100.00;97489.56;5059786;28;20055;-63
2023/02/11 05:55:15;;;;;;;33.63;28.70;;;;;;;-5.76;100.00;97484.41;5063027;28;20414;-63
2023/02/11 05:57:40;;;;;;;35.33;29.65;;;;;;;-5.83;100.00;97480.13;5063749;28;20112;-65
2023/02/11 06:00:06;;;;;;;34.92;27.23;;;;;;;-5.87;100.00;97483.53;5068251;28;20028;-69
2023/02/11 06:02:32;;;;;;;35.33;29.65;;;;;;;-5.90;100.00;97497.22;5065889;28;20439;-63
2023/02/11 06:04:58;;;;;;;34.38;28.48;;;;;;;-5.92;100.00;97488.66;5053092;28;20044;-62
2023/02/11 06:07:23;;;;;;;32.63;27.58;;;;;;;-5.92;100.00;97480.09;5064322;28;20071;-63
2023/02/11 06:09:48;;;;;;;31.83;26.27;;;;;;;-5.88;100.00;97478.41;5067538;28;20041;-63
2023/02/11 06:12:14;;;;;;;29.40;25.98;;;;;;;-5.90;100.00;97463.00;5062390;28;20132;-63
2023/02/11 06:14:39;;;;;;;30.70;27.25;;;;;;;-5.86;100.00;97466.44;5064073;28;20064;-62
2023/02/11 06:17:04;;;;;;;30.50;25.42;;;;;;;-5.77;99.86;97458.72;5065913;28;20040;-63
2023/02/11 06:19:30;;;;;;;33.83;28.95;;;;;;;-5.70;99.65;97464.72;5049320;28;20764;-62
2023/02/11 06:21:55;;;;;;;40.40;34.78;;;;;;;-5.72;100.00;97461.31;5067689;28;20033;-63
2023/02/11 06:24:21;;;;;;;42.28;35.70;;;;;;;-5.80;100.00;97461.31;5059870;28;20033;-63
2023/02/11 06:26:46;;;;;;;43.15;37.65;;;;;;;-5.82;100.00;97452.75;5066186;28;20086;-63
2023/02/11 06:29:12;;;;;;;44.97;37.25;;;;;;;-5.80;100.00;97454.47;5061914;28;20033;-63
2023/02/11 06:31:38;;;;;;;40.88;33.95;;;;;;;-5.81;100.00;97451.88;5069578;28;20029;-64
2023/02/11 06:34:03;;;;;;;41.95;35.95;;;;;;;-5.81;100.00;97472.41;5064842;28;20091;-63
2023/02/11 06:36:30;;;;;;;43.30;34.50;;;;;;;-5.78;100.00;97467.28;5066346;28;20036;-63
2023/02/11 06:38:55;;;;;;;41.58;34.85;;;;;;;-5.74;100.00;97469.03;5058868;28;20036;-64
2023/02/11 06:41:21;;;;;;;48.33;38.80;;;;;;;-5.67;99.91;97468.16;5064349;28;20077;-64
2023/02/11 06:43:48;;;;;;;50.63;39.35;;;;;;;-5.40;98.58;97473.31;5059344;28;20031;-65
2023/02/11 06:46:13;;;;;;;40.33;32.25;;;;;;;-5.27;98.52;97484.44;5061390;28;20255;-66
2023/02/11 06:48:39;;;;;;;51.28;38.45;;;;;;;-5.33;99.24;97485.28;5054424;28;20033;-64
2023/02/11 06:51:08;;;;;;;48.90;36.83;;;;;;;-5.27;99.26;97492.97;5050476;28;20033;-64
2023/02/11 06:53:35;;;;;;;60.65;43.30;;;;;;;-5.35;99.02;97489.56;5056779;28;20049;-64
2023/02/11 06:56:07;;;;;;;76.93;49.05;;;;;;;-5.45;99.76;97491.28;5065394;28;20036;-65
2023/02/11 06:58:33;;;;;;;76.25;48.70;;;;;;;-5.47;100.00;97493.00;5061070;28;20098;-64
2023/02/11 07:00:58;;;;;;;75.13;48.28;;;;;;;-5.51;99.83;97487.00;5068374;28;20048;-64
2023/02/11 07:03:24;;;;;;;89.25;52.22;;;;;;;-5.53;99.33;97491.28;5062651;28;20060;-64
2023/02/11 07:05:50;;;;;;;176.95;82.40;;;;;;;-5.51;99.87;97492.13;5059945;28;20057;-65
2023/02/11 07:08:15;;;;;;;117.05;67.88;;;;;;;-5.48;99.59;97492.13;5057979;28;20068;-64
2023/02/11 07:10:40;;;;;;;109.25;63.97;;;;;;;-5.44;99.66;97495.56;5060172;28;20056;-65
2023/02/11 07:13:06;;;;;;;94.75;61.88;;;;;;;-5.39;99.15;97498.13;5065842;28;20043;-66
2023/02/11 07:15:31;;;;;;;140.25;75.70;;;;;;;-5.40;98.82;97497.25;5064363;28;20025;-66
2023/02/11 07:17:57;;;;;;;203.50;89.38;;;;;;;-5.38;99.25;97497.28;5057345;28;20463;-65
2023/02/11 07:20:22;;;;;;;166.90;81.15;;;;;;;-5.37;99.75;97493.84;5057483;28;20554;-66
2023/02/11 07:22:47;;;;;;;190.90;93.80;;;;;;;-5.40;99.80;97504.13;5065680;28;20379;-67
2023/02/11 07:25:13;;;;;;;197.25;97.97;;;;;;;-5.42;99.84;97505.81;5047926;28;20114;-67
2023/02/11 07:27:38;;;;;;;172.60;88.35;;;;;;;-5.45;99.54;97504.13;5061315;28;20028;-67
2023/02/11 07:30:04;;;;;;;156.82;83.95;;;;;;;-5.48;100.00;97515.22;5056202;28;20105;-68
2023/02/11 07:32:30;;;;;;;170.77;89.15;;;;;;;-5.49;100.00;97518.66;5055918;28;20047;-69
2023/02/11 07:34:55;;;;;;;174.32;92.45;;;;;;;-5.49;100.00;97521.22;5056433;28;20047;-68
2023/02/11 07:37:20;;;;;;;165.60;90.45;;;;;;;-5.44;100.00;97522.94;5056597;28;20409;-69
2023/02/11 07:39:46;;;;;;;166.43;85.20;;;;;;;-5.45;100.00;97529.78;5057208;28;20032;-64
2023/02/11 07:42:11;;;;;;;133.93;75.28;;;;;;;-5.45;100.00;97532.34;5057301;28;20048;-64
2023/02/11 07:44:36;;;;;;;124.63;71.65;;;;;;;-5.44;100.00;97535.75;5056120;28;20039;-64
2023/02/11 07:47:02;;;;;;;100.47;61.42;;;;;;;-5.38;100.00;97538.34;5066347;28;20086;-64
2023/02/11 07:49:27;;;;;;;167.13;89.63;;;;;;;-5.32;100.00;97544.31;5063284;28;20422;-64
2023/02/11 07:51:53;;;;;;;276.85;126.85;;;;;;;-5.23;100.00;97546.03;5057495;28;20040;-64
2023/02/11 07:54:18;;;;;;;182.20;92.93;;;;;;;-5.18;100.00;97541.78;5062682;28;20033;-64
2023/02/11 07:56:43;;;;;;;128.43;74.90;;;;;;;-5.18;100.00;97540.91;5061311;28;20047;-64
2023/02/11 07:59:10;;;;;;;123.15;75.68;;;;;;;-5.19;100.00;97536.63;5059465;28;20073;-70
2023/02/11 08:01:36;;;;;;;129.60;77.47;;;;;;;-5.19;100.00;97542.66;5062836;28;20032;-71
2023/02/11 08:04:02;;;;;;;153.98;86.90;;;;;;;-5.15;100.00;97545.22;5059245;28;20040;-71
2023/02/11 08:06:30;;;;;;;139.65;82.85;;;;;;;-5.09;100.00;97545.19;5062797;28;20036;-72
2023/02/11 08:08:57;;;;;;;139.77;81.53;;;;;;;-5.08;100.00;97541.78;5044376;28;20036;-71
2023/02/11 08:11:27;;;;;;;140.10;82.15;;;;;;;-5.07;100.00;97546.94;5055874;28;20505;-71
2023/02/11 08:13:54;;;;;;;133.05;83.70;;;;;;;-5.01;100.00;97550.34;5060381;28;20407;-70
2023/02/11 08:16:31;;;;;;;134.20;75.38;;;;;;;-4.95;100.00;97542.63;5056291;28;20029;-65
2023/02/11 08:18:59;;;;;;;117.95;74.68;;;;;;;-4.93;100.00;97546.91;5058599;28;20024;-67
2023/02/11 08:21:25;;;;;;;98.30;67.82;;;;;;;-4.89;100.00;97543.47;5067149;28;20045;-68
2023/02/11 08:23:51;;;;;;;86.88;59.90;;;;;;;-4.65;99.68;97549.44;5053465;28;20029;-68
2023/02/11 08:26:22;;;;;;;88.45;71.65;;;;;;;-4.39;100.00;97552.81;5058937;28;20051;-68
2023/02/11 08:28:50;;;;;;;154.43;111.28;;;;;;;-4.37;99.79;97551.09;5059223;28;20032;-67
2023/02/11 08:31:18;;;;;;;126.22;97.20;;;;;;;-4.47;100.00;97560.53;5064389;28;20048;-67
2023/02/11 08:33:44;;;;;;;118.55;92.60;;;;;;;-4.48;100.00;97561.41;5060739;28;20054;-66
2023/02/11 08:36:12;;;;;;;140.27;102.70;;;;;;;-4.50;100.00;97568.28;5074025;28;20033;-67
2023/02/11 08:38:37;;;;;;;128.55;97.35;;;;;;;-4.47;100.00;97570.84;5048935;28;20124;-67
2023/02/11 08:41:04;;;;;;;127.05;96.70;;;;;;;-4.41;100.00;97581.09;5062400;28;20562;-67
2023/02/11 08:43:29;;;;;;;126.60;98.05;;;;;;;-4.34;100.00;97582.78;5046870;28;20037;-67
2023/02/11 08:45:54;;;;;;;117.05;91.90;;;;;;;-4.07;100.00;97585.28;5063282;28;20036;-67
2023/02/11 08:48:20;;;;;;;100.55;76.03;;;;;;;-3.54;99.80;97585.91;5050442;28;20028;-67
2023/02/11 08:50:45;;;;;;;72.65;59.53;;;;;;;-3.04;97.91;97590.72;5053090;28;20032;-67
2023/02/11 08:53:11;;;;;;;82.05;57.63;;;;;;;-2.83;96.18;97597.44;5068009;28;20024;-69
2023/02/11 08:55:36;;;;;;;72.90;57.08;;;;;;;-2.61;96.09;97600.69;5072046;28;20029;-64
2023/02/11 08:58:02;;;;;;;64.97;51.38;;;;;;;-2.31;96.52;97588.38;5065211;28;20028;-64
2023/02/11 09:00:27;;;;;;;47.00;41.03;;;;;;;-1.98;95.59;97598.34;5065750;28;20155;-65
2023/02/11 09:02:52;;;;;;;39.53;33.50;;;;;;;-1.82;95.82;97588.66;5071524;28;20464;-64
2023/02/11 09:05:18;;;;;;;32.75;29.33;;;;;;;-1.63;96.22;97575.53;5071347;28;20028;-65
2023/02/11 09:07:43;;;;;;;29.40;25.85;;;;;;;-1.43;95.64;97577.00;5069690;28;20093;-64
2023/02/11 09:10:09;;;;;;;175.23;102.15;;;;;;;-1.21;94.30;97559.41;5065268;28;20115;-64
2023/02/11 09:12:34;;;;;;;78.82;47.08;;;;;;;-0.96;92.22;97564.19;5069707;28;20127;-66
2023/02/11 09:14:59;;;;;;;42.17;31.10;;;;;;;-0.85;90.96;97556.25;5070940;28;20028;-68
2023/02/11 09:17:25;;;;;;;55.05;46.45;;;;;;;-0.69;88.76;97560.31;5069789;28;20060;-69
2023/02/11 09:19:50;;;;;;;24.90;22.23;;;;;;;-0.58;86.98;97547.19;5070719;28;20107;-68
2023/02/11 09:22:15;;;;;;;22.67;20.33;;;;;;;-0.38;87.33;97549.38;5071460;28;20094;-68
2023/02/11 09:24:41;;;;;;;22.30;19.92;;;;;;;-0.21;84.80;97546.50;5061845;28;20032;-67
2023/02/11 09:27:06;;;;;;;22.35;20.02;;;;;;;0.05;82.64;97546.84;5071457;28;20517;-69
2023/02/11 09:29:31;;;;;;;23.58;21.15;;;;;;;0.36;80.20;97551.41;5070547;28;20407;-67
2023/02/11 09:31:57;;;;;;;24.73;22.30;;;;;;;0.69;77.75;97544.63;5061960;28;20033;-67
2023/02/11 09:34:22;;;;;;;70.22;50.15;;;;;;;1.04;77.46;97549.84;5059746;28;20049;-68
2023/02/11 09:36:47;;;;;;;36.38;29.25;;;;;;;1.24;73.01;97546.75;5069499;28;20529;-69
2023/02/11 09:39:16;;;;;;;42.05;30.60;;;;;;;1.40;73.61;97543.78;5065703;28;20044;-70
2023/02/11 09:42:16;;;;;;;36.08;26.73;;;;;;;1.73;67.96;97542.94;5064793;28;20036;-69
2023/02/11 09:44:44;;;;;;;24.67;21.27;;;;;;;2.08;69.41;97539.34;5067094;28;20421;-70
2023/02/11 09:47:23;;;;;;;25.88;22.30;;;;;;;2.47;66.96;97534.78;5067317;28;20479;-70
2023/02/11 09:50:04;;;;;;;134.15;77.65;;;;;;;2.84;67.06;97536.22;5062235;28;20392;-65
2023/02/11 09:52:51;;;;;;;38.13;23.92;;;;;;;2.92;65.59;97548.97;5065365;28;20120;-74
2023/02/11 09:55:21;;;;;;;22.25;16.40;;;;;;;3.01;64.34;97551.31;5068494;28;20498;-72
2023/02/11 09:57:47;;;;;;;30.00;20.35;;;;;;;3.24;60.93;97553.13;5067769;28;20039;-69
2023/02/11 10:00:31;;;;;;;23.40;17.15;;;;;;;3.46;60.23;97554.19;5071163;28;20024;-70
2023/02/11 10:03:17;;;;;;;37.13;23.83;;;;;;;3.68;60.42;97547.34;5057152;28;20029;-66
2023/02/11 10:06:09;;;;;;;16.80;14.57;;;;;;;3.73;57.36;97558.44;5050456;28;20527;-65
2023/02/11 10:08:58;;;;;;;12.93;11.63;;;;;;;4.06;55.56;97554.69;5049980;28;20052;-62
2023/02/11 10:11:45;;;;;;;11.10;10.00;;;;;;;4.20;55.49;97559.41;5054365;28;20028;-67
2023/02/11 10:14:48;;;;;;;14.80;11.85;;;;;;;4.33;53.27;97564.16;5061906;28;20055;-65
2023/02/11 10:17:22;;;;;;;12.90;11.60;;;;;;;4.37;54.35;97573.56;5057192;28;20036;-65
2023/02/11 10:19:53;;;;;;;21.45;15.43;;;;;;;4.66;55.00;97571.63;5057758;28;20025;-65
2023/02/11 10:22:26;;;;;;;15.38;13.82;;;;;;;4.72;53.09;97568.75;5061334;28;20159;-65
2023/02/11 10:24:57;;;;;;;31.70;23.65;;;;;;;4.76;54.84;97565.16;5052158;28;20123;-65
2023/02/11 10:27:28;;;;;;;17.90;15.07;;;;;;;4.78;52.64;97571.16;5054824;28;20450;-65
2023/02/11 10:30:08;;;;;;;17.02;14.77;;;;;;;5.06;51.18;97562.22;5052994;28;20098;-67
2023/02/11 10:32:45;;;;;;;28.10;23.40;;;;;;;5.12;50.59;97572.41;5053674;28;20044;-62
2023/02/11 10:35:17;;;;;;;21.38;18.45;;;;;;;5.17;48.37;97561.78;5052058;28;20079;-61
2023/02/11 10:37:43;;;;;;;16.00;13.88;;;;;;;5.25;49.72;97570.16;5055783;28;20044;-61
2023/02/11 10:40:29;;;;;;;19.10;16.10;;;;;;;5.24;47.48;97557.16;5055620;28;20031;-62
2023/02/11 10:42:59;;;;;;;18.08;14.38;;;;;;;5.53;46.84;97558.59;5059307;28;20471;-61
2023/02/11 10:45:36;;;;;;;15.63;13.75;;;;;;;5.87;47.10;97551.88;5060386;28;20086;-61
2023/02/11 10:48:41;;;;;;;20.45;17.48;;;;;;;6.10;47.32;97551.84;5062940;28;20177;-64
2023/02/11 10:51:09;;;;;;;14.18;12.68;;;;;;;6.38;46.25;97556.66;5072772;28;20078;-61
2023/02/11 10:53:35;;;;;;;11.98;10.80;;;;;;;6.33;43.91;97552.56;5067741;28;20056;-61
2023/02/11 10:56:02;;;;;;;12.65;10.82;;;;;;;6.30;44.56;97556.16;5062060;28;20052;-61
2023/02/11 10:58:33;;;;;;;15.23;13.63;;;;;;;6.32;44.99;97558.72;5058548;28;20036;-62
2023/02/11 11:01:00;;;;;;;17.00;14.30;;;;;;;6.39;43.49;97562.75;5055133;28;20129;-62
2023/02/11 11:03:30;;;;;;;15.55;10.95;;;;;;;6.55;43.53;97558.50;5054111;28;20549;-62
2023/02/11 11:06:12;;;;;;;16.95;12.50;;;;;;;6.62;42.86;97553.00;5058547;28;20075;-63
2023/02/11 11:08:46;;;;;;;16.73;12.50;;;;;;;6.54;42.84;97548.97;5063746;28;20510;-64
2023/02/11 11:11:15;;;;;;;14.25;11.48;;;;;;;6.80;44.19;97543.41;5063241;28;20035;-71
2023/02/11 11:14:02;;;;;;;14.52;12.00;;;;;;;7.12;42.62;97541.84;5051773;28;20063;-73
2023/02/11 11:16:32;;;;;;;12.73;11.43;;;;;;;7.26;42.24;97535.94;5048809;28;20120;-74
2023/02/11 11:19:06;;;;;;;14.95;11.40;;;;;;;7.04;40.62;97517.81;5068971;28;20107;-70
2023/02/11 11:21:39;;;;;;;13.43;12.02;;;;;;;6.94;41.62;97521.81;5065426;28;20040;-69
2023/02/11 11:24:05;;;;;;;13.80;11.85;;;;;;;7.23;39.52;97519.53;5049899;28;20049;-67
2023/02/11 11:26:43;;;;;;;11.60;10.50;;;;;;;7.26;39.13;97517.59;5066591;28;20032;-67
2023/02/11 11:29:15;;;;;;;15.65;11.50;;;;;;;7.50;40.63;97511.22;5068471;28;20398;-68